sensor_id;sensor_type;location;lat;lon;timestamp;P1;durP1;ratioP1;P2;durP2;ratioP2
12780;SDS011;6454;43.304;24.344;2022-09-01T00:01:26;9.52;;;8.57;;
12780;SDS011;6454;43.304;24.344;2022-09-01T00:03:54;12.70;;;9.93;;
12780;SDS011;6454;43.304;24.344;2022-09-01T00:06:27;11.38;;;8.93;;
12780;SDS011;6454;43.304;24.344;2022-09-01T00:08:56;13.35;;;9.27;;
12780;SDS011;6454;43.304;24.344;2022-09-01T00:11:26;12.23;;;8.93;;
12780;SDS011;6454;43.304;24.344;2022-09-01T00:13:54;10.98;;;9.00;;
12780;SDS011;6454;43.304;24.344;2022-09-01T00:16:22;11.57;;;8.55;;
12780;SDS011;6454;43.304;24.344;2022-09-01T00:18:51;11.50;;;8.55;;
12780;SDS011;6454;43.304;24.344;2022-09-01T00:21:20;10.50;;;8.82;;
12780;SDS011;6454;43.304;24.344;2022-09-01T00:23:49;11.27;;;9.48;;
12780;SDS011;6454;43.304;24.344;2022-09-01T00:26:17;11.18;;;9.23;;
12780;SDS011;6454;43.304;24.344;2022-09-01T00:28:44;9.80;;;7.95;;
12780;SDS011;6454;43.304;24.344;2022-09-01T00:31:11;9.73;;;8.48;;
12780;SDS011;6454;43.304;24.344;2022-09-01T00:33:39;13.43;;;8.60;;
12780;SDS011;6454;43.304;24.344;2022-09-01T00:36:07;15.02;;;8.65;;
12780;SDS011;6454;43.304;24.344;2022-09-01T00:38:35;10.25;;;8.45;;
12780;SDS011;6454;43.304;24.344;2022-09-01T00:41:03;10.30;;;9.02;;
12780;SDS011;6454;43.304;24.344;2022-09-01T00:43:35;10.68;;;9.05;;
12780;SDS011;6454;43.304;24.344;2022-09-01T00:46:05;10.70;;;8.98;;
12780;SDS011;6454;43.304;24.344;2022-09-01T00:48:34;13.75;;;9.77;;
12780;SDS011;6454;43.304;24.344;2022-09-01T00:51:02;11.48;;;10.15;;
12780;SDS011;6454;43.304;24.344;2022-09-01T00:53:31;12.80;;;9.90;;
12780;SDS011;6454;43.304;24.344;2022-09-01T00:55:59;12.23;;;9.93;;
12780;SDS011;6454;43.304;24.344;2022-09-01T00:58:27;11.55;;;10.35;;
12780;SDS011;6454;43.304;24.344;2022-09-01T01:00:55;11.63;;;10.35;;
12780;SDS011;6454;43.304;24.344;2022-09-01T01:03:22;12.57;;;10.75;;
12780;SDS011;6454;43.304;24.344;2022-09-01T01:05:50;12.43;;;11.18;;
12780;SDS011;6454;43.304;24.344;2022-09-01T01:08:23;11.85;;;10.73;;
12780;SDS011;6454;43.304;24.344;2022-09-01T01:10:59;13.20;;;10.23;;
12780;SDS011;6454;43.304;24.344;2022-09-01T01:13:27;13.27;;;10.93;;
12780;SDS011;6454;43.304;24.344;2022-09-01T01:15:56;11.57;;;9.90;;
12780;SDS011;6454;43.304;24.344;2022-09-01T01:18:24;13.50;;;10.50;;
12780;SDS011;6454;43.304;24.344;2022-09-01T01:20:56;12.85;;;11.00;;
12780;SDS011;6454;43.304;24.344;2022-09-01T01:23:47;13.77;;;11.43;;
12780;SDS011;6454;43.304;24.344;2022-09-01T01:26:22;13.23;;;10.70;;
12780;SDS011;6454;43.304;24.344;2022-09-01T01:28:49;14.15;;;11.23;;
12780;SDS011;6454;43.304;24.344;2022-09-01T01:31:17;12.52;;;10.82;;
12780;SDS011;6454;43.304;24.344;2022-09-01T01:33:47;11.30;;;10.10;;
12780;SDS011;6454;43.304;24.344;2022-09-01T01:36:17;12.02;;;10.82;;
12780;SDS011;6454;43.304;24.344;2022-09-01T01:38:55;12.07;;;10.70;;
12780;SDS011;6454;43.304;24.344;2022-09-01T01:41:29;12.25;;;10.52;;
12780;SDS011;6454;43.304;24.344;2022-09-01T01:43:57;12.07;;;10.77;;
12780;SDS011;6454;43.304;24.344;2022-09-01T01:46:25;11.57;;;10.45;;
12780;SDS011;6454;43.304;24.344;2022-09-01T01:48:52;11.75;;;10.55;;
12780;SDS011;6454;43.304;24.344;2022-09-01T01:51:20;11.18;;;10.10;;
12780;SDS011;6454;43.304;24.344;2022-09-01T01:53:49;13.98;;;10.65;;
12780;SDS011;6454;43.304;24.344;2022-09-01T01:56:17;13.00;;;10.07;;
12780;SDS011;6454;43.304;24.344;2022-09-01T01:58:45;14.27;;;10.43;;
12780;SDS011;6454;43.304;24.344;2022-09-01T02:01:13;11.52;;;10.25;;
12780;SDS011;6454;43.304;24.344;2022-09-01T02:03:41;11.18;;;10.05;;
12780;SDS011;6454;43.304;24.344;2022-09-01T02:06:09;11.70;;;10.45;;
12780;SDS011;6454;43.304;24.344;2022-09-01T02:08:36;12.75;;;9.85;;
12780;SDS011;6454;43.304;24.344;2022-09-01T02:11:05;10.82;;;9.48;;
12780;SDS011;6454;43.304;24.344;2022-09-01T02:13:33;10.00;;;9.05;;
12780;SDS011;6454;43.304;24.344;2022-09-01T02:16:03;10.07;;;9.10;;
12780;SDS011;6454;43.304;24.344;2022-09-01T02:18:37;11.48;;;9.75;;
12780;SDS011;6454;43.304;24.344;2022-09-01T02:21:06;9.18;;;8.38;;
12780;SDS011;6454;43.304;24.344;2022-09-01T02:23:35;12.90;;;10.00;;
12780;SDS011;6454;43.304;24.344;2022-09-01T02:26:03;11.60;;;9.68;;
12780;SDS011;6454;43.304;24.344;2022-09-01T02:28:32;13.55;;;9.77;;
12780;SDS011;6454;43.304;24.344;2022-09-01T02:31:05;10.07;;;9.00;;
12780;SDS011;6454;43.304;24.344;2022-09-01T02:33:34;11.00;;;9.25;;
12780;SDS011;6454;43.304;24.344;2022-09-01T02:36:03;10.48;;;9.45;;
12780;SDS011;6454;43.304;24.344;2022-09-01T02:38:32;10.88;;;9.77;;
12780;SDS011;6454;43.304;24.344;2022-09-01T02:41:00;12.07;;;9.77;;
12780;SDS011;6454;43.304;24.344;2022-09-01T02:43:28;13.98;;;10.82;;
12780;SDS011;6454;43.304;24.344;2022-09-01T02:45:56;12.73;;;10.00;;
12780;SDS011;6454;43.304;24.344;2022-09-01T02:48:27;11.32;;;10.13;;
12780;SDS011;6454;43.304;24.344;2022-09-01T02:51:00;12.77;;;9.93;;
12780;SDS011;6454;43.304;24.344;2022-09-01T02:53:28;11.25;;;10.15;;
12780;SDS011;6454;43.304;24.344;2022-09-01T02:55:58;12.38;;;10.38;;
12780;SDS011;6454;43.304;24.344;2022-09-01T02:58:26;11.68;;;10.13;;
12780;SDS011;6454;43.304;24.344;2022-09-01T03:00:54;11.35;;;9.68;;
12780;SDS011;6454;43.304;24.344;2022-09-01T03:03:22;13.43;;;10.15;;
12780;SDS011;6454;43.304;24.344;2022-09-01T03:05:51;11.50;;;9.00;;
12780;SDS011;6454;43.304;24.344;2022-09-01T03:08:20;10.63;;;9.52;;
12780;SDS011;6454;43.304;24.344;2022-09-01T03:10:49;10.93;;;9.57;;
12780;SDS011;6454;43.304;24.344;2022-09-01T03:13:18;10.90;;;8.80;;
12780;SDS011;6454;43.304;24.344;2022-09-01T03:15:48;13.90;;;8.90;;
12780;SDS011;6454;43.304;24.344;2022-09-01T03:18:15;11.93;;;9.80;;
12780;SDS011;6454;43.304;24.344;2022-09-01T03:20:42;12.23;;;9.70;;
12780;SDS011;6454;43.304;24.344;2022-09-01T03:23:13;13.05;;;9.52;;
12780;SDS011;6454;43.304;24.344;2022-09-01T03:25:43;10.52;;;9.45;;
12780;SDS011;6454;43.304;24.344;2022-09-01T03:28:12;13.40;;;9.15;;
12780;SDS011;6454;43.304;24.344;2022-09-01T03:30:43;9.18;;;8.23;;
12780;SDS011;6454;43.304;24.344;2022-09-01T03:33:11;11.52;;;9.05;;
12780;SDS011;6454;43.304;24.344;2022-09-01T03:35:39;10.20;;;9.05;;
12780;SDS011;6454;43.304;24.344;2022-09-01T03:38:06;13.10;;;9.15;;
12780;SDS011;6454;43.304;24.344;2022-09-01T03:40:35;10.23;;;9.23;;
12780;SDS011;6454;43.304;24.344;2022-09-01T03:43:02;10.43;;;9.43;;
12780;SDS011;6454;43.304;24.344;2022-09-01T03:45:31;11.32;;;9.55;;
12780;SDS011;6454;43.304;24.344;2022-09-01T03:47:59;10.27;;;9.18;;
12780;SDS011;6454;43.304;24.344;2022-09-01T03:50:28;10.23;;;9.13;;
12780;SDS011;6454;43.304;24.344;2022-09-01T03:52:56;10.15;;;9.00;;
12780;SDS011;6454;43.304;24.344;2022-09-01T03:55:26;10.73;;;9.20;;
12780;SDS011;6454;43.304;24.344;2022-09-01T03:57:59;9.50;;;8.27;;
12780;SDS011;6454;43.304;24.344;2022-09-01T04:00:31;10.88;;;8.95;;
12780;SDS011;6454;43.304;24.344;2022-09-01T04:03:01;9.65;;;8.75;;
12780;SDS011;6454;43.304;24.344;2022-09-01T04:05:32;10.05;;;8.80;;
12780;SDS011;6454;43.304;24.344;2022-09-01T04:08:03;10.63;;;8.43;;
12780;SDS011;6454;43.304;24.344;2022-09-01T04:10:32;9.80;;;8.80;;
12780;SDS011;6454;43.304;24.344;2022-09-01T04:13:04;13.20;;;9.00;;
12780;SDS011;6454;43.304;24.344;2022-09-01T04:15:35;9.05;;;8.20;;
12780;SDS011;6454;43.304;24.344;2022-09-01T04:18:03;9.32;;;8.35;;
12780;SDS011;6454;43.304;24.344;2022-09-01T04:20:33;9.48;;;8.57;;
12780;SDS011;6454;43.304;24.344;2022-09-01T04:23:13;9.27;;;8.38;;
12780;SDS011;6454;43.304;24.344;2022-09-01T04:25:46;10.02;;;9.02;;
12780;SDS011;6454;43.304;24.344;2022-09-01T04:28:16;9.60;;;8.65;;
12780;SDS011;6454;43.304;24.344;2022-09-01T04:30:49;9.80;;;8.80;;
12780;SDS011;6454;43.304;24.344;2022-09-01T04:33:20;9.10;;;8.35;;
12780;SDS011;6454;43.304;24.344;2022-09-01T04:35:48;9.98;;;8.98;;
12780;SDS011;6454;43.304;24.344;2022-09-01T04:38:21;10.38;;;9.10;;
12780;SDS011;6454;43.304;24.344;2022-09-01T04:40:49;13.38;;;8.95;;
12780;SDS011;6454;43.304;24.344;2022-09-01T04:43:19;10.40;;;9.40;;
12780;SDS011;6454;43.304;24.344;2022-09-01T04:45:46;10.32;;;8.93;;
12780;SDS011;6454;43.304;24.344;2022-09-01T04:48:16;10.30;;;8.60;;
12780;SDS011;6454;43.304;24.344;2022-09-01T04:50:44;9.90;;;8.85;;
12780;SDS011;6454;43.304;24.344;2022-09-01T04:53:13;10.48;;;8.38;;
12780;SDS011;6454;43.304;24.344;2022-09-01T04:55:42;17.95;;;9.45;;
12780;SDS011;6454;43.304;24.344;2022-09-01T04:58:11;14.25;;;9.27;;
12780;SDS011;6454;43.304;24.344;2022-09-01T05:00:43;9.05;;;8.13;;
12780;SDS011;6454;43.304;24.344;2022-09-01T05:03:12;11.18;;;8.13;;
12780;SDS011;6454;43.304;24.344;2022-09-01T05:05:46;9.32;;;8.05;;
12780;SDS011;6454;43.304;24.344;2022-09-01T05:08:14;8.35;;;7.47;;
12780;SDS011;6454;43.304;24.344;2022-09-01T05:10:42;19.05;;;8.75;;
12780;SDS011;6454;43.304;24.344;2022-09-01T05:13:12;14.77;;;8.20;;
12780;SDS011;6454;43.304;24.344;2022-09-01T05:15:43;9.93;;;8.45;;
12780;SDS011;6454;43.304;24.344;2022-09-01T05:18:12;10.18;;;8.57;;
12780;SDS011;6454;43.304;24.344;2022-09-01T05:20:40;9.00;;;8.10;;
12780;SDS011;6454;43.304;24.344;2022-09-01T05:23:08;8.95;;;8.15;;
12780;SDS011;6454;43.304;24.344;2022-09-01T05:25:41;9.75;;;8.75;;
12780;SDS011;6454;43.304;24.344;2022-09-01T05:28:10;9.45;;;7.80;;
12780;SDS011;6454;43.304;24.344;2022-09-01T05:30:38;13.05;;;8.68;;
12780;SDS011;6454;43.304;24.344;2022-09-01T05:33:08;9.52;;;8.60;;
12780;SDS011;6454;43.304;24.344;2022-09-01T05:35:37;10.50;;;8.45;;
12780;SDS011;6454;43.304;24.344;2022-09-01T05:38:10;9.77;;;8.77;;
12780;SDS011;6454;43.304;24.344;2022-09-01T05:40:39;11.05;;;8.73;;
12780;SDS011;6454;43.304;24.344;2022-09-01T05:43:08;9.70;;;8.48;;
12780;SDS011;6454;43.304;24.344;2022-09-01T05:45:37;9.38;;;7.82;;
12780;SDS011;6454;43.304;24.344;2022-09-01T05:48:08;9.98;;;7.57;;
12780;SDS011;6454;43.304;24.344;2022-09-01T05:50:41;10.20;;;7.53;;
12780;SDS011;6454;43.304;24.344;2022-09-01T05:53:09;9.80;;;8.90;;
12780;SDS011;6454;43.304;24.344;2022-09-01T05:55:41;9.25;;;8.18;;
12780;SDS011;6454;43.304;24.344;2022-09-01T05:58:10;12.73;;;8.70;;
12780;SDS011;6454;43.304;24.344;2022-09-01T06:00:39;9.93;;;8.95;;
12780;SDS011;6454;43.304;24.344;2022-09-01T06:03:09;13.00;;;9.10;;
12780;SDS011;6454;43.304;24.344;2022-09-01T06:05:36;13.85;;;8.77;;
12780;SDS011;6454;43.304;24.344;2022-09-01T06:08:04;9.40;;;8.45;;
12780;SDS011;6454;43.304;24.344;2022-09-01T06:10:32;9.80;;;8.88;;
12780;SDS011;6454;43.304;24.344;2022-09-01T06:13:01;9.85;;;8.88;;
12780;SDS011;6454;43.304;24.344;2022-09-01T06:15:28;9.75;;;8.80;;
12780;SDS011;6454;43.304;24.344;2022-09-01T06:17:55;10.63;;;8.48;;
12780;SDS011;6454;43.304;24.344;2022-09-01T06:20:23;9.48;;;8.55;;
12780;SDS011;6454;43.304;24.344;2022-09-01T06:22:51;11.52;;;8.73;;
12780;SDS011;6454;43.304;24.344;2022-09-01T06:25:18;9.45;;;8.48;;
12780;SDS011;6454;43.304;24.344;2022-09-01T06:27:45;12.27;;;9.23;;
12780;SDS011;6454;43.304;24.344;2022-09-01T06:30:13;9.73;;;8.75;;
12780;SDS011;6454;43.304;24.344;2022-09-01T06:32:44;9.88;;;8.75;;
12780;SDS011;6454;43.304;24.344;2022-09-01T06:35:14;11.10;;;9.48;;
12780;SDS011;6454;43.304;24.344;2022-09-01T06:37:43;11.85;;;8.98;;
12780;SDS011;6454;43.304;24.344;2022-09-01T06:40:14;11.38;;;9.70;;
12780;SDS011;6454;43.304;24.344;2022-09-01T06:42:43;9.25;;;8.20;;
12780;SDS011;6454;43.304;24.344;2022-09-01T06:45:11;9.18;;;8.27;;
12780;SDS011;6454;43.304;24.344;2022-09-01T06:47:39;10.73;;;8.48;;
12780;SDS011;6454;43.304;24.344;2022-09-01T06:50:08;10.15;;;8.48;;
12780;SDS011;6454;43.304;24.344;2022-09-01T06:52:39;9.25;;;8.38;;
12780;SDS011;6454;43.304;24.344;2022-09-01T06:55:08;11.43;;;7.88;;
12780;SDS011;6454;43.304;24.344;2022-09-01T06:57:36;11.80;;;7.55;;
12780;SDS011;6454;43.304;24.344;2022-09-01T07:00:04;9.70;;;7.18;;
12780;SDS011;6454;43.304;24.344;2022-09-01T07:02:42;9.30;;;7.38;;
12780;SDS011;6454;43.304;24.344;2022-09-01T07:05:09;7.38;;;6.68;;
12780;SDS011;6454;43.304;24.344;2022-09-01T07:07:45;8.73;;;6.75;;
12780;SDS011;6454;43.304;24.344;2022-09-01T07:10:17;7.28;;;6.47;;
12780;SDS011;6454;43.304;24.344;2022-09-01T07:12:46;8.95;;;6.63;;
12780;SDS011;6454;43.304;24.344;2022-09-01T07:15:14;8.20;;;6.55;;
12780;SDS011;6454;43.304;24.344;2022-09-01T07:17:41;9.57;;;6.90;;
12780;SDS011;6454;43.304;24.344;2022-09-01T07:20:09;7.18;;;6.43;;
12780;SDS011;6454;43.304;24.344;2022-09-01T07:22:37;8.80;;;6.55;;
12780;SDS011;6454;43.304;24.344;2022-09-01T07:25:04;9.05;;;7.28;;
12780;SDS011;6454;43.304;24.344;2022-09-01T07:27:38;8.73;;;7.80;;
12780;SDS011;6454;43.304;24.344;2022-09-01T07:30:06;8.85;;;6.88;;
12780;SDS011;6454;43.304;24.344;2022-09-01T07:32:35;10.65;;;7.50;;
12780;SDS011;6454;43.304;24.344;2022-09-01T07:35:04;10.70;;;7.18;;
12780;SDS011;6454;43.304;24.344;2022-09-01T07:37:33;8.35;;;6.93;;
12780;SDS011;6454;43.304;24.344;2022-09-01T07:40:03;8.30;;;7.47;;
12780;SDS011;6454;43.304;24.344;2022-09-01T07:42:32;8.98;;;7.35;;
12780;SDS011;6454;43.304;24.344;2022-09-01T07:45:00;14.25;;;8.18;;
12780;SDS011;6454;43.304;24.344;2022-09-01T07:47:31;8.77;;;7.55;;
12780;SDS011;6454;43.304;24.344;2022-09-01T07:50:01;9.98;;;8.13;;
12780;SDS011;6454;43.304;24.344;2022-09-01T07:52:30;10.25;;;8.30;;
12780;SDS011;6454;43.304;24.344;2022-09-01T07:54:56;10.23;;;8.45;;
12780;SDS011;6454;43.304;24.344;2022-09-01T07:57:23;8.93;;;8.00;;
12780;SDS011;6454;43.304;24.344;2022-09-01T07:59:50;10.38;;;8.02;;
12780;SDS011;6454;43.304;24.344;2022-09-01T08:02:21;8.68;;;7.85;;
12780;SDS011;6454;43.304;24.344;2022-09-01T08:04:48;10.27;;;8.23;;
12780;SDS011;6454;43.304;24.344;2022-09-01T08:07:15;8.52;;;7.72;;
12780;SDS011;6454;43.304;24.344;2022-09-01T08:09:42;9.45;;;7.75;;
12780;SDS011;6454;43.304;24.344;2022-09-01T08:12:09;9.10;;;7.57;;
12780;SDS011;6454;43.304;24.344;2022-09-01T08:14:36;8.15;;;7.35;;
12780;SDS011;6454;43.304;24.344;2022-09-01T08:17:03;8.45;;;7.45;;
12780;SDS011;6454;43.304;24.344;2022-09-01T08:19:32;9.07;;;7.65;;
12780;SDS011;6454;43.304;24.344;2022-09-01T08:22:00;7.72;;;7.03;;
12780;SDS011;6454;43.304;24.344;2022-09-01T08:24:27;7.97;;;7.07;;
12780;SDS011;6454;43.304;24.344;2022-09-01T08:26:54;9.23;;;7.88;;
12780;SDS011;6454;43.304;24.344;2022-09-01T08:29:21;8.45;;;6.88;;
12780;SDS011;6454;43.304;24.344;2022-09-01T08:31:48;7.50;;;6.80;;
12780;SDS011;6454;43.304;24.344;2022-09-01T08:34:14;9.90;;;7.47;;
12780;SDS011;6454;43.304;24.344;2022-09-01T08:36:43;11.35;;;6.78;;
12780;SDS011;6454;43.304;24.344;2022-09-01T08:39:10;9.25;;;7.22;;
12780;SDS011;6454;43.304;24.344;2022-09-01T08:41:40;7.93;;;7.10;;
12780;SDS011;6454;43.304;24.344;2022-09-01T08:44:12;8.50;;;7.32;;
12780;SDS011;6454;43.304;24.344;2022-09-01T08:46:46;7.55;;;6.75;;
12780;SDS011;6454;43.304;24.344;2022-09-01T08:49:21;8.55;;;6.80;;
12780;SDS011;6454;43.304;24.344;2022-09-01T08:51:52;8.88;;;7.15;;
12780;SDS011;6454;43.304;24.344;2022-09-01T08:54:24;14.30;;;8.05;;
12780;SDS011;6454;43.304;24.344;2022-09-01T08:56:56;8.50;;;7.43;;
12780;SDS011;6454;43.304;24.344;2022-09-01T08:59:27;14.00;;;8.02;;
12780;SDS011;6454;43.304;24.344;2022-09-01T09:01:56;8.80;;;7.43;;
12780;SDS011;6454;43.304;24.344;2022-09-01T09:04:36;7.82;;;7.03;;
12780;SDS011;6454;43.304;24.344;2022-09-01T09:07:16;11.55;;;7.85;;
12780;SDS011;6454;43.304;24.344;2022-09-01T09:09:56;8.57;;;7.43;;
12780;SDS011;6454;43.304;24.344;2022-09-01T09:12:34;8.13;;;6.85;;
12780;SDS011;6454;43.304;24.344;2022-09-01T09:15:16;7.57;;;6.80;;
12780;SDS011;6454;43.304;24.344;2022-09-01T09:17:52;11.15;;;7.05;;
12780;SDS011;6454;43.304;24.344;2022-09-01T09:20:25;10.23;;;6.88;;
12780;SDS011;6454;43.304;24.344;2022-09-01T09:22:53;9.50;;;7.57;;
12780;SDS011;6454;43.304;24.344;2022-09-01T09:25:22;8.40;;;6.40;;
12780;SDS011;6454;43.304;24.344;2022-09-01T09:27:49;10.43;;;6.43;;
12780;SDS011;6454;43.304;24.344;2022-09-01T09:30:18;8.27;;;6.65;;
12780;SDS011;6454;43.304;24.344;2022-09-01T09:32:48;7.22;;;5.90;;
12780;SDS011;6454;43.304;24.344;2022-09-01T09:35:19;8.95;;;7.07;;
12780;SDS011;6454;43.304;24.344;2022-09-01T09:37:54;11.35;;;6.50;;
12780;SDS011;6454;43.304;24.344;2022-09-01T09:40:22;11.25;;;7.32;;
12780;SDS011;6454;43.304;24.344;2022-09-01T09:43:01;8.73;;;6.72;;
12780;SDS011;6454;43.304;24.344;2022-09-01T09:45:31;12.30;;;7.05;;
12780;SDS011;6454;43.304;24.344;2022-09-01T09:48:03;9.82;;;6.53;;
12780;SDS011;6454;43.304;24.344;2022-09-01T09:50:32;11.85;;;7.05;;
12780;SDS011;6454;43.304;24.344;2022-09-01T09:53:17;8.80;;;7.28;;
12780;SDS011;6454;43.304;24.344;2022-09-01T09:55:56;9.80;;;6.47;;
12780;SDS011;6454;43.304;24.344;2022-09-01T09:58:27;9.80;;;6.47;;
12780;SDS011;6454;43.304;24.344;2022-09-01T10:01:01;9.50;;;6.40;;
12780;SDS011;6454;43.304;24.344;2022-09-01T10:03:35;7.00;;;6.32;;
12780;SDS011;6454;43.304;24.344;2022-09-01T10:06:07;7.95;;;6.45;;
12780;SDS011;6454;43.304;24.344;2022-09-01T10:08:38;11.05;;;6.75;;
12780;SDS011;6454;43.304;24.344;2022-09-01T10:11:09;10.48;;;5.97;;
12780;SDS011;6454;43.304;24.344;2022-09-01T10:13:37;9.40;;;6.45;;
12780;SDS011;6454;43.304;24.344;2022-09-01T10:16:06;8.27;;;6.15;;
12780;SDS011;6454;43.304;24.344;2022-09-01T10:18:42;10.90;;;6.60;;
12780;SDS011;6454;43.304;24.344;2022-09-01T10:21:11;8.90;;;6.53;;
12780;SDS011;6454;43.304;24.344;2022-09-01T10:23:42;6.95;;;6.13;;
12780;SDS011;6454;43.304;24.344;2022-09-01T10:26:10;7.43;;;6.18;;
12780;SDS011;6454;43.304;24.344;2022-09-01T10:28:43;9.88;;;6.28;;
12780;SDS011;6454;43.304;24.344;2022-09-01T10:31:17;9.90;;;6.70;;
12780;SDS011;6454;43.304;24.344;2022-09-01T10:33:45;8.30;;;6.30;;
12780;SDS011;6454;43.304;24.344;2022-09-01T10:36:12;10.40;;;6.68;;
12780;SDS011;6454;43.304;24.344;2022-09-01T10:38:42;7.95;;;6.35;;
12780;SDS011;6454;43.304;24.344;2022-09-01T10:41:09;9.38;;;6.55;;
12780;SDS011;6454;43.304;24.344;2022-09-01T10:44:32;8.27;;;6.38;;
12780;SDS011;6454;43.304;24.344;2022-09-01T10:47:01;10.07;;;6.60;;
12780;SDS011;6454;43.304;24.344;2022-09-01T10:55:19;11.73;;;6.63;;
12780;SDS011;6454;43.304;24.344;2022-09-01T10:57:49;11.07;;;6.60;;
12780;SDS011;6454;43.304;24.344;2022-09-01T11:00:43;10.48;;;6.85;;
12780;SDS011;6454;43.304;24.344;2022-09-01T11:06:04;8.70;;;6.80;;
12780;SDS011;6454;43.304;24.344;2022-09-01T11:08:42;10.65;;;7.10;;
12780;SDS011;6454;43.304;24.344;2022-09-01T11:14:08;8.30;;;5.90;;
12780;SDS011;6454;43.304;24.344;2022-09-01T11:16:43;11.88;;;7.22;;
12780;SDS011;6454;43.304;24.344;2022-09-01T11:19:39;10.23;;;6.65;;
12780;SDS011;6454;43.304;24.344;2022-09-01T11:22:19;8.93;;;6.95;;
12780;SDS011;6454;43.304;24.344;2022-09-01T11:24:51;11.65;;;6.43;;
12780;SDS011;6454;43.304;24.344;2022-09-01T11:30:52;7.55;;;6.30;;
12780;SDS011;6454;43.304;24.344;2022-09-01T11:36:26;7.25;;;6.35;;
12780;SDS011;6454;43.304;24.344;2022-09-01T11:39:03;10.18;;;7.00;;
12780;SDS011;6454;43.304;24.344;2022-09-01T11:41:33;7.28;;;6.57;;
12780;SDS011;6454;43.304;24.344;2022-09-01T11:44:11;11.57;;;6.45;;
12780;SDS011;6454;43.304;24.344;2022-09-01T11:46:41;11.27;;;6.78;;
12780;SDS011;6454;43.304;24.344;2022-09-01T11:49:17;8.68;;;6.95;;
12780;SDS011;6454;43.304;24.344;2022-09-01T11:51:52;10.48;;;6.53;;
12780;SDS011;6454;43.304;24.344;2022-09-01T11:54:19;8.50;;;6.25;;
12780;SDS011;6454;43.304;24.344;2022-09-01T11:56:49;10.43;;;6.50;;
12780;SDS011;6454;43.304;24.344;2022-09-01T11:59:28;9.48;;;6.40;;
12780;SDS011;6454;43.304;24.344;2022-09-01T12:01:56;7.60;;;6.50;;
12780;SDS011;6454;43.304;24.344;2022-09-01T12:04:29;10.38;;;6.47;;
12780;SDS011;6454;43.304;24.344;2022-09-01T12:07:00;8.30;;;6.30;;
12780;SDS011;6454;43.304;24.344;2022-09-01T12:09:36;8.40;;;6.57;;
12780;SDS011;6454;43.304;24.344;2022-09-01T12:12:29;11.88;;;6.13;;
12780;SDS011;6454;43.304;24.344;2022-09-01T12:14:55;9.45;;;6.13;;
12780;SDS011;6454;43.304;24.344;2022-09-01T12:17:23;9.20;;;6.10;;
12780;SDS011;6454;43.304;24.344;2022-09-01T12:19:51;8.68;;;6.10;;
12780;SDS011;6454;43.304;24.344;2022-09-01T12:22:18;10.02;;;6.13;;
12780;SDS011;6454;43.304;24.344;2022-09-01T12:24:47;8.95;;;6.10;;
12780;SDS011;6454;43.304;24.344;2022-09-01T12:27:15;10.60;;;6.25;;
12780;SDS011;6454;43.304;24.344;2022-09-01T12:29:42;7.35;;;5.80;;
12780;SDS011;6454;43.304;24.344;2022-09-01T12:32:10;9.75;;;6.03;;
12780;SDS011;6454;43.304;24.344;2022-09-01T12:34:39;8.23;;;5.93;;
12780;SDS011;6454;43.304;24.344;2022-09-01T12:37:11;8.68;;;5.80;;
12780;SDS011;6454;43.304;24.344;2022-09-01T12:39:46;6.57;;;5.88;;
12780;SDS011;6454;43.304;24.344;2022-09-01T12:42:22;9.50;;;6.03;;
12780;SDS011;6454;43.304;24.344;2022-09-01T12:44:52;7.85;;;6.30;;
12780;SDS011;6454;43.304;24.344;2022-09-01T12:50:34;9.40;;;6.18;;
12780;SDS011;6454;43.304;24.344;2022-09-01T12:53:14;8.75;;;6.20;;
12780;SDS011;6454;43.304;24.344;2022-09-01T12:55:53;8.95;;;6.10;;
12780;SDS011;6454;43.304;24.344;2022-09-01T12:58:27;12.27;;;6.30;;
12780;SDS011;6454;43.304;24.344;2022-09-01T13:00:57;10.00;;;6.47;;
12780;SDS011;6454;43.304;24.344;2022-09-01T13:03:27;6.07;;;5.50;;
12780;SDS011;6454;43.304;24.344;2022-09-01T13:05:55;7.38;;;5.70;;
12780;SDS011;6454;43.304;24.344;2022-09-01T13:08:26;9.85;;;6.00;;
12780;SDS011;6454;43.304;24.344;2022-09-01T13:10:55;7.88;;;5.53;;
12780;SDS011;6454;43.304;24.344;2022-09-01T13:13:25;7.63;;;5.75;;
12780;SDS011;6454;43.304;24.344;2022-09-01T13:15:53;9.15;;;6.05;;
12780;SDS011;6454;43.304;24.344;2022-09-01T13:18:24;12.88;;;6.10;;
12780;SDS011;6454;43.304;24.344;2022-09-01T13:20:52;9.07;;;5.57;;
12780;SDS011;6454;43.304;24.344;2022-09-01T13:23:21;10.75;;;6.22;;
12780;SDS011;6454;43.304;24.344;2022-09-01T13:25:49;6.05;;;5.22;;
12780;SDS011;6454;43.304;24.344;2022-09-01T13:28:17;8.27;;;5.68;;
12780;SDS011;6454;43.304;24.344;2022-09-01T13:30:45;12.48;;;5.72;;
12780;SDS011;6454;43.304;24.344;2022-09-01T13:33:17;8.70;;;5.75;;
12780;SDS011;6454;43.304;24.344;2022-09-01T13:35:44;6.20;;;5.30;;
12780;SDS011;6454;43.304;24.344;2022-09-01T13:38:10;11.98;;;5.55;;
12780;SDS011;6454;43.304;24.344;2022-09-01T13:40:40;7.57;;;5.30;;
12780;SDS011;6454;43.304;24.344;2022-09-01T13:43:08;7.45;;;5.68;;
12780;SDS011;6454;43.304;24.344;2022-09-01T13:45:35;14.05;;;5.70;;
12780;SDS011;6454;43.304;24.344;2022-09-01T13:48:05;9.32;;;5.65;;
12780;SDS011;6454;43.304;24.344;2022-09-01T13:50:32;6.75;;;5.28;;
12780;SDS011;6454;43.304;24.344;2022-09-01T13:52:59;8.48;;;6.00;;
12780;SDS011;6454;43.304;24.344;2022-09-01T13:55:27;8.45;;;5.68;;
12780;SDS011;6454;43.304;24.344;2022-09-01T13:57:54;8.73;;;5.43;;
12780;SDS011;6454;43.304;24.344;2022-09-01T14:00:25;7.20;;;4.95;;
12780;SDS011;6454;43.304;24.344;2022-09-01T14:02:54;6.35;;;5.03;;
12780;SDS011;6454;43.304;24.344;2022-09-01T14:05:24;9.13;;;5.43;;
12780;SDS011;6454;43.304;24.344;2022-09-01T14:07:52;6.93;;;5.05;;
12780;SDS011;6454;43.304;24.344;2022-09-01T14:10:20;6.03;;;4.90;;
12780;SDS011;6454;43.304;24.344;2022-09-01T14:12:48;7.38;;;5.10;;
12780;SDS011;6454;43.304;24.344;2022-09-01T14:15:16;8.98;;;4.80;;
12780;SDS011;6454;43.304;24.344;2022-09-01T14:17:46;8.32;;;4.68;;
12780;SDS011;6454;43.304;24.344;2022-09-01T14:20:15;10.35;;;4.85;;
12780;SDS011;6454;43.304;24.344;2022-09-01T14:22:44;8.48;;;4.50;;
12780;SDS011;6454;43.304;24.344;2022-09-01T14:25:11;7.10;;;4.60;;
12780;SDS011;6454;43.304;24.344;2022-09-01T14:27:39;6.25;;;3.72;;
12780;SDS011;6454;43.304;24.344;2022-09-01T14:30:07;4.57;;;4.15;;
12780;SDS011;6454;43.304;24.344;2022-09-01T14:32:36;5.63;;;3.78;;
12780;SDS011;6454;43.304;24.344;2022-09-01T14:35:05;5.78;;;4.13;;
12780;SDS011;6454;43.304;24.344;2022-09-01T14:37:33;5.97;;;4.07;;
12780;SDS011;6454;43.304;24.344;2022-09-01T14:40:02;5.95;;;3.72;;
12780;SDS011;6454;43.304;24.344;2022-09-01T14:42:30;6.28;;;3.80;;
12780;SDS011;6454;43.304;24.344;2022-09-01T14:44:57;4.85;;;3.90;;
12780;SDS011;6454;43.304;24.344;2022-09-01T14:47:24;4.05;;;3.38;;
12780;SDS011;6454;43.304;24.344;2022-09-01T14:49:51;3.50;;;3.20;;
12780;SDS011;6454;43.304;24.344;2022-09-01T14:52:20;8.05;;;3.20;;
12780;SDS011;6454;43.304;24.344;2022-09-01T14:54:47;4.32;;;2.70;;
12780;SDS011;6454;43.304;24.344;2022-09-01T14:57:14;5.20;;;2.92;;
12780;SDS011;6454;43.304;24.344;2022-09-01T14:59:41;4.60;;;3.00;;
12780;SDS011;6454;43.304;24.344;2022-09-01T15:02:08;7.15;;;2.90;;
12780;SDS011;6454;43.304;24.344;2022-09-01T15:04:35;3.85;;;2.88;;
12780;SDS011;6454;43.304;24.344;2022-09-01T15:07:03;5.80;;;2.60;;
12780;SDS011;6454;43.304;24.344;2022-09-01T15:09:32;4.97;;;2.35;;
12780;SDS011;6454;43.304;24.344;2022-09-01T15:12:00;13.85;;;3.13;;
12780;SDS011;6454;43.304;24.344;2022-09-01T15:14:27;2.50;;;2.30;;
12780;SDS011;6454;43.304;24.344;2022-09-01T15:16:54;3.70;;;2.30;;
12780;SDS011;6454;43.304;24.344;2022-09-01T15:19:20;5.72;;;2.13;;